Terminal Aerodrome Forecast
Issued by NWS

Home | Current Version | Previous Version | Text Only | Print | Product List | Glossary On
Versions: 1 2 3 4 5 6 7 8 9 10 11 12 13 14
094
FTUS43 KBIS 261120
TAFDIK
TAF
KDIK 261120Z 2612/2712 05007KT P6SM SKC
     FM270400 13007KT P6SM FEW100 FEW200=

USA.gov is the U.S. government's official web portal to all federal, state and local government web resources and services.